Time;durP1;ratioP1;P1;durP2;ratioP2;P2;SDS_P1;SDS_P2;PMS_P1;PMS_P2;Temp;Humidity;BMP_temperature;BMP_pressure;BME280_temperature;BME280_humidity;BME280_pressure;Samples;Min_cycle;Max_cycle;Signal;HPM_P1;HPM_P2
2024/01/04 00:00:45;;;;;;;13.38;9.02;;;;;;;5.59;81.00;98606.56;4799113;29;20111;-94
2024/01/04 00:03:10;;;;;;;11.70;8.52;;;;;;;5.50;81.22;98592.09;4815235;29;20549;-91
2024/01/04 00:05:36;;;;;;;11.68;8.05;;;;;;;5.71;80.96;98619.75;4829217;29;20539;-92
2024/01/04 00:08:01;;;;;;;11.55;6.85;;;;;;;5.67;80.30;98599.97;4813791;29;20050;-92
2024/01/04 00:10:27;;;;;;;11.05;7.57;;;;;;;5.60;80.70;98584.16;4813635;29;20038;-91
2024/01/04 00:12:53;;;;;;;8.80;5.88;;;;;;;5.64;80.17;98603.13;4813881;29;20038;-91
2024/01/04 00:15:18;;;;;;;10.90;8.38;;;;;;;5.70;80.43;98593.28;4813672;29;20148;-91
2024/01/04 00:17:44;;;;;;;16.90;11.63;;;;;;;5.73;79.71;98596.25;4813588;29;20374;-92
2024/01/04 00:20:10;;;;;;;15.32;10.85;;;;;;;5.82;79.25;98613.41;4799683;29;20045;-92
2024/01/04 00:22:36;;;;;;;16.48;10.52;;;;;;;5.62;79.08;98586.56;4798103;29;20516;-91
2024/01/04 00:25:03;;;;;;;14.90;9.52;;;;;;;5.66;79.17;98598.34;4798756;29;20026;-92
2024/01/04 00:27:29;;;;;;;11.93;8.02;;;;;;;5.61;79.02;98592.97;4828805;29;20049;-94
2024/01/04 00:29:55;;;;;;;13.95;9.80;;;;;;;5.60;79.30;98604.69;4814762;29;20034;-92
2024/01/04 00:32:20;;;;;;;24.08;14.85;;;;;;;5.46;79.65;98594.44;4814127;29;20041;-93
2024/01/04 00:34:46;;;;;;;18.35;12.07;;;;;;;5.66;79.08;98625.03;4798319;29;20049;-90
2024/01/04 00:37:11;;;;;;;14.27;10.40;;;;;;;5.44;79.21;98595.78;4797940;29;20073;-92
2024/01/04 00:39:37;;;;;;;13.77;9.00;;;;;;;5.60;79.24;98616.19;4799515;29;20052;-93
2024/01/04 00:42:03;;;;;;;12.82;8.55;;;;;;;5.54;79.01;98619.88;4816694;29;20040;-92
2024/01/04 00:44:28;;;;;;;14.05;9.30;;;;;;;5.38;79.70;98600.25;4816305;29;20094;-91
2024/01/04 00:46:54;;;;;;;12.18;8.27;;;;;;;5.44;79.37;98615.25;4816764;29;20049;-93
2024/01/04 00:49:19;;;;;;;12.38;8.90;;;;;;;5.44;79.12;98614.47;4817093;29;20025;-91
2024/01/04 00:51:46;;;;;;;11.70;8.18;;;;;;;5.47;79.00;98619.28;4817516;29;20030;-92
2024/01/04 00:54:14;;;;;;;15.38;9.25;;;;;;;5.44;79.47;98607.25;4816444;29;20030;-92
2024/01/04 00:56:39;;;;;;;11.43;7.72;;;;;;;5.39;80.07;98604.50;4817208;29;20501;-91
2024/01/04 00:59:05;;;;;;;10.40;7.05;;;;;;;5.46;80.32;98599.78;4816659;29;20041;-92
2024/01/04 01:01:33;;;;;;;8.23;6.03;;;;;;;5.47;80.30;98620.06;4815622;29;20041;-92
2024/01/04 01:04:00;;;;;;;9.45;7.35;;;;;;;5.45;80.42;98613.38;4831632;29;20129;-92
2024/01/04 01:06:25;;;;;;;13.70;8.32;;;;;;;5.41;80.67;98599.72;4832203;29;20057;-91
2024/01/04 01:08:51;;;;;;;7.68;4.80;;;;;;;5.55;80.07;98613.47;4816881;29;20042;-92
2024/01/04 01:11:16;;;;;;;25.23;13.95;;;;;;;5.44;80.21;98614.47;4817072;29;20386;-91
2024/01/04 01:13:42;;;;;;;21.65;13.23;;;;;;;5.37;79.61;98600.50;4801141;29;20037;-93
2024/01/04 01:16:08;;;;;;;24.85;14.18;;;;;;;5.34;79.68;98601.00;4801685;29;20042;-92
2024/01/04 01:18:34;;;;;;;23.02;12.77;;;;;;;5.26;79.68;98604.94;4801751;29;20038;-92
2024/01/04 01:21:02;;;;;;;23.48;13.77;;;;;;;5.33;79.50;98610.06;4800481;29;20048;-92
2024/01/04 01:23:27;;;;;;;15.70;11.82;;;;;;;5.31;78.76;98607.63;4801783;29;20504;-93
2024/01/04 01:25:53;;;;;;;17.30;10.52;;;;;;;5.33;79.02;98612.72;4801466;29;20102;-93
2024/01/04 01:28:19;;;;;;;15.60;9.57;;;;;;;5.27;79.35;98606.53;4800830;29;20034;-92
2024/01/04 01:30:46;;;;;;;20.77;11.43;;;;;;;5.25;78.92;98612.16;4815998;29;20073;-93
2024/01/04 01:33:12;;;;;;;16.30;9.98;;;;;;;5.25;79.38;98608.69;4801995;29;20038;-93
2024/01/04 01:35:38;;;;;;;13.80;8.38;;;;;;;5.18;79.74;98602.72;4816876;29;20026;-92
2024/01/04 01:38:04;;;;;;;14.38;9.73;;;;;;;5.20;79.47;98614.75;4831203;29;20058;-93
2024/01/04 01:40:29;;;;;;;13.95;9.43;;;;;;;5.04;79.38;98597.81;4815300;29;20053;-93
2024/01/04 01:42:59;;;;;;;15.57;9.65;;;;;;;5.17;79.45;98622.47;4816614;29;20048;-93
2024/01/04 01:45:24;;;;;;;16.85;11.18;;;;;;;5.02;79.81;98591.91;4831049;29;20038;-92
2024/01/04 01:47:50;;;;;;;17.88;11.68;;;;;;;4.99;79.65;98599.59;4800346;29;20058;-92
2024/01/04 01:50:16;;;;;;;23.30;12.57;;;;;;;5.10;79.72;98608.50;4801112;29;20034;-92
2024/01/04 01:52:42;;;;;;;21.73;12.98;;;;;;;4.97;79.36;98583.03;4800411;29;20041;-92
2024/01/04 01:55:11;;;;;;;15.80;11.40;;;;;;;5.05;79.39;98602.06;4801678;29;20122;-93
2024/01/04 01:57:37;;;;;;;13.45;9.43;;;;;;;4.94;80.01;98579.03;4802813;29;20034;-94
2024/01/04 02:00:04;;;;;;;14.70;9.50;;;;;;;5.13;79.58;98614.16;4830906;29;20046;-94
2024/01/04 02:02:29;;;;;;;12.18;8.38;;;;;;;5.06;80.41;98603.69;4818324;29;20045;-96
2024/01/04 02:04:55;;;;;;;13.15;8.32;;;;;;;5.05;80.40;98594.06;4818200;29;20042;-96
2024/01/04 02:07:21;;;;;;;11.18;8.05;;;;;;;5.17;80.75;98612.59;4816813;29;20046;-96
2024/01/04 02:09:46;;;;;;;19.13;11.95;;;;;;;5.00;80.19;98615.38;4816920;29;20046;-95
2024/01/04 02:12:13;;;;;;;19.42;11.98;;;;;;;4.90;79.89;98612.59;4801845;29;20047;-94
2024/01/04 02:14:39;;;;;;;21.63;13.30;;;;;;;4.80;79.88;98604.47;4801733;29;20420;-94
2024/01/04 02:17:05;;;;;;;20.40;12.65;;;;;;;4.78;79.29;98603.91;4802259;29;20038;-92
2024/01/04 02:19:31;;;;;;;22.02;13.00;;;;;;;4.79;79.67;98608.19;4800997;29;20048;-96
2024/01/04 02:21:56;;;;;;;19.17;11.00;;;;;;;4.75;79.07;98609.72;4802924;29;20042;-96
2024/01/04 02:24:22;;;;;;;15.13;10.27;;;;;;;4.75;79.67;98607.06;4801248;29;20044;-93
2024/01/04 02:26:47;;;;;;;16.02;10.57;;;;;;;4.83;79.48;98627.97;4801012;29;20044;-96
2024/01/04 02:29:15;;;;;;;16.98;10.25;;;;;;;4.71;79.43;98604.09;4801657;29;20041;-95
2024/01/04 02:31:43;;;;;;;15.00;10.23;;;;;;;4.70;79.01;98607.81;4801663;29;20101;-95
2024/01/04 02:34:09;;;;;;;15.50;9.73;;;;;;;4.65;79.79;98600.56;4801936;29;20106;-94
2024/01/04 02:36:35;;;;;;;15.63;10.02;;;;;;;4.64;79.43;98617.59;4832256;29;20071;-94
2024/01/04 02:39:01;;;;;;;15.18;9.98;;;;;;;4.62;80.26;98605.59;4830490;29;20041;-94
2024/01/04 02:41:27;;;;;;;12.48;9.77;;;;;;;4.69;80.01;98634.72;4817317;29;20565;-94
2024/01/04 02:43:52;;;;;;;14.00;9.38;;;;;;;4.66;80.33;98622.69;4817033;29;20037;-95
2024/01/04 02:46:18;;;;;;;13.80;9.93;;;;;;;4.64;80.13;98616.81;4815954;29;20049;-93
2024/01/04 02:48:43;;;;;;;14.45;9.45;;;;;;;4.71;81.01;98630.78;4816517;29;20046;-94
2024/01/04 02:51:09;;;;;;;14.70;9.00;;;;;;;4.64;81.09;98620.28;4816297;29;20040;-94
2024/01/04 02:53:35;;;;;;;13.82;9.48;;;;;;;4.77;81.12;98635.13;4816578;29;20038;-94
2024/01/04 02:56:01;;;;;;;14.38;9.57;;;;;;;4.70;80.84;98618.47;4832245;29;20030;-94
2024/01/04 02:58:27;;;;;;;18.73;11.05;;;;;;;4.77;80.59;98631.63;4815088;29;20072;-96
2024/01/04 03:00:52;;;;;;;14.88;9.88;;;;;;;4.63;80.20;98615.22;4801034;29;20544;-94
2024/01/04 03:03:20;;;;;;;15.57;10.52;;;;;;;4.68;80.26;98623.25;4816571;29;20042;-94
2024/01/04 03:05:47;;;;;;;17.02;10.20;;;;;;;4.68;80.07;98614.47;4801480;29;20145;-92
2024/01/04 03:08:14;;;;;;;15.95;9.50;;;;;;;4.65;80.79;98611.22;4801028;29;20416;-95
2024/01/04 03:10:39;;;;;;;13.60;10.48;;;;;;;4.74;81.26;98629.47;4815857;29;20042;-96
2024/01/04 03:13:08;;;;;;;16.52;10.45;;;;;;;4.79;81.15;98635.69;4801463;29;20045;-94
2024/01/04 03:15:33;;;;;;;17.17;10.50;;;;;;;4.75;80.47;98631.88;4801920;29;20041;-94
2024/01/04 03:17:59;;;;;;;13.30;10.02;;;;;;;4.73;80.22;98634.00;4799961;29;20497;-94
2024/01/04 03:20:24;;;;;;;15.63;10.13;;;;;;;4.77;79.94;98634.28;4802045;29;20133;-93
2024/01/04 03:22:50;;;;;;;15.90;10.05;;;;;;;4.67;80.66;98621.66;4802179;29;20045;-94
2024/01/04 03:25:16;;;;;;;16.90;10.88;;;;;;;4.54;80.63;98625.47;4800798;29;20066;-93
2024/01/04 03:27:43;;;;;;;15.02;11.15;;;;;;;4.49;80.38;98609.44;4801152;29;20046;-93
2024/01/04 03:30:12;;;;;;;15.15;9.63;;;;;;;4.62;80.37;98624.25;4816044;29;20063;-94
2024/01/04 03:32:37;;;;;;;13.88;8.48;;;;;;;4.60;79.90;98626.34;4816292;29;20489;-94
2024/01/04 03:35:04;;;;;;;11.98;7.70;;;;;;;4.58;80.29;98615.13;4815521;29;20048;-93
2024/01/04 03:37:30;;;;;;;12.88;8.25;;;;;;;4.56;80.49;98617.25;4829323;29;20057;-94
2024/01/04 03:39:59;;;;;;;16.63;10.23;;;;;;;4.75;81.31;98639.88;4815375;29;20073;-94
2024/01/04 03:42:24;;;;;;;17.52;9.77;;;;;;;4.70;81.61;98629.16;4801402;29;20516;-94
2024/01/04 03:44:50;;;;;;;14.95;9.68;;;;;;;4.74;80.98;98638.25;4815318;29;20042;-94
2024/01/04 03:47:15;;;;;;;14.25;9.57;;;;;;;4.53;80.15;98623.06;4815595;29;20053;-93
2024/01/04 03:49:43;;;;;;;13.77;9.23;;;;;;;4.50;78.91;98621.69;4801420;29;20454;-93
2024/01/04 03:52:08;;;;;;;15.05;8.77;;;;;;;4.57;78.56;98638.31;4815085;29;20114;-94
2024/01/04 03:54:34;;;;;;;14.25;9.93;;;;;;;4.52;79.39;98632.91;4831390;29;20038;-94
2024/01/04 03:56:59;;;;;;;14.18;9.38;;;;;;;4.44;78.99;98620.84;4814841;29;20049;-94
2024/01/04 03:59:25;;;;;;;17.42;10.88;;;;;;;4.48;79.54;98639.78;4815938;29;20037;-93
2024/01/04 04:01:52;;;;;;;15.38;10.20;;;;;;;4.42;79.54;98627.44;4800784;29;20511;-94
2024/01/04 04:04:18;;;;;;;15.38;9.73;;;;;;;4.47;79.60;98635.53;4800151;29;20044;-95
2024/01/04 04:06:43;;;;;;;16.40;9.60;;;;;;;4.48;79.50;98647.78;4815479;29;20037;-94
2024/01/04 04:09:09;;;;;;;15.02;9.93;;;;;;;4.47;79.48;98642.72;4816060;29;20401;-94
2024/01/04 04:11:35;;;;;;;15.35;9.77;;;;;;;4.51;79.87;98625.97;4816308;29;20101;-94
2024/01/04 04:14:01;;;;;;;15.95;9.63;;;;;;;4.62;80.01;98643.72;4815417;29;20094;-94
2024/01/04 04:16:26;;;;;;;16.30;9.52;;;;;;;4.53;80.77;98615.88;4814268;29;20077;-93
2024/01/04 04:18:52;;;;;;;16.60;10.50;;;;;;;4.66;80.77;98633.38;4815463;29;20048;-95
2024/01/04 04:21:22;;;;;;;19.05;11.63;;;;;;;4.44;80.43;98598.69;4801069;29;20067;-95
2024/01/04 04:23:49;;;;;;;16.27;8.82;;;;;;;4.44;80.47;98598.69;4800329;29;20046;-94
2024/01/04 04:26:33;;;;;;;13.68;8.75;;;;;;;4.44;80.92;98598.69;4817245;29;20155;-95
2024/01/04 04:28:59;;;;;;;14.52;8.38;;;;;;;4.50;80.52;98603.03;4816462;29;20058;-94
2024/01/04 04:31:24;;;;;;;13.25;8.27;;;;;;;4.50;80.68;98607.56;4831973;29;20114;-95
2024/01/04 04:33:50;;;;;;;10.40;7.70;;;;;;;4.41;80.73;98600.00;4816982;29;20076;-94
2024/01/04 04:36:16;;;;;;;14.02;9.07;;;;;;;4.49;80.34;98604.09;4815418;29;20486;-95
2024/01/04 04:38:41;;;;;;;12.48;8.52;;;;;;;4.62;80.86;98626.91;4814710;29;20065;-95
2024/01/04 04:41:10;;;;;;;15.88;8.13;;;;;;;4.51;80.73;98601.19;4815394;29;20041;-95
2024/01/04 04:43:36;;;;;;;13.52;8.05;;;;;;;4.62;81.12;98617.03;4814768;29;20054;-94
2024/01/04 04:46:09;;;;;;;17.52;10.13;;;;;;;4.52;80.81;98603.59;4832343;29;20042;-95
2024/01/04 04:48:38;;;;;;;13.82;8.50;;;;;;;4.41;80.15;98586.66;4801449;29;20064;-94
2024/01/04 04:51:07;;;;;;;11.30;7.53;;;;;;;4.47;80.57;98600.88;4815982;29;20042;-94
2024/01/04 04:53:32;;;;;;;13.02;7.88;;;;;;;4.58;80.49;98626.59;4817152;29;20133;-94
2024/01/04 04:55:58;;;;;;;18.05;11.93;;;;;;;4.50;79.85;98615.56;4816946;29;20505;-93
2024/01/04 04:58:24;;;;;;;27.13;12.68;;;;;;;4.40;79.74;98608.22;4799319;29;20038;-95
2024/01/04 05:00:49;;;;;;;19.77;12.55;;;;;;;4.40;79.11;98610.91;4800710;29;20034;-94
2024/01/04 05:03:15;;;;;;;26.17;13.77;;;;;;;4.27;79.29;98604.06;4799696;29;20065;-96
2024/01/04 05:05:40;;;;;;;23.77;14.35;;;;;;;4.27;78.66;98611.25;4799448;29;20042;-96
2024/01/04 05:08:06;;;;;;;20.95;13.13;;;;;;;4.27;78.58;98600.59;4798767;29;20189;-95
2024/01/04 05:10:32;;;;;;;24.48;14.40;;;;;;;4.30;78.68;98602.78;4799315;29;20064;-94
2024/01/04 05:12:59;;;;;;;22.52;13.60;;;;;;;4.38;78.89;98615.66;4799335;29;20073;-95
2024/01/04 05:15:27;;;;;;;24.00;16.10;;;;;;;4.31;79.28;98607.06;4801030;29;20049;-94
2024/01/04 05:17:53;;;;;;;27.65;15.40;;;;;;;4.22;79.22;98604.00;4801473;29;20062;-95
2024/01/04 05:20:19;;;;;;;23.95;14.32;;;;;;;4.23;79.02;98590.47;4800313;29;20045;-91
2024/01/04 05:23:05;;;;;;;22.40;13.18;;;;;;;4.39;79.53;98607.44;4799934;29;20038;-95
2024/01/04 05:25:31;;;;;;;24.15;13.02;;;;;;;4.34;79.48;98620.69;4820376;29;20466;-93
2024/01/04 05:27:57;;;;;;;22.67;14.07;;;;;;;4.30;79.15;98600.13;4803250;29;20041;-95
2024/01/04 05:30:26;;;;;;;21.08;12.57;;;;;;;4.41;79.54;98604.53;4804494;29;20038;-94
2024/01/04 05:33:04;;;;;;;;;;;;;;;;;;;;;
2024/01/04 05:35:31;;;;;;;19.60;12.70;;;;;;;4.54;79.47;98617.47;4819640;29;20050;-92
2024/01/04 05:37:59;;;;;;;16.65;11.32;;;;;;;4.53;79.48;98610.56;4821788;29;20087;-91
2024/01/04 05:41:01;;;;;;;21.80;12.20;;;;;;;4.59;79.76;98625.56;4807108;29;20500;-92
2024/01/04 05:43:47;;;;;;;17.73;12.05;;;;;;;4.56;79.69;98618.03;4813950;29;20098;-91
2024/01/04 05:46:16;;;;;;;19.70;12.35;;;;;;;4.53;79.78;98613.22;4818072;29;20065;-94
2024/01/04 05:48:42;;;;;;;16.58;11.57;;;;;;;4.54;79.12;98609.47;4806439;29;20045;-93
2024/01/04 05:51:07;;;;;;;28.63;14.48;;;;;;;4.56;79.17;98612.69;4818207;29;20500;-93
2024/01/04 05:53:33;;;;;;;32.92;17.35;;;;;;;4.69;79.33;98630.22;4804789;29;20040;-94
2024/01/04 05:56:09;;;;;;;36.05;19.05;;;;;;;4.62;77.89;98605.59;4818706;29;20128;-96
2024/01/04 05:58:40;;;;;;;32.50;18.50;;;;;;;4.78;78.25;98619.91;4853468;29;20048;-95
2024/01/04 06:01:05;;;;;;;44.47;24.23;;;;;;;4.57;78.11;98593.00;4819077;29;20105;-94
2024/01/04 06:03:32;;;;;;;27.95;16.65;;;;;;;4.71;77.74;98612.09;4805891;29;20049;-92
2024/01/04 06:05:57;;;;;;;25.88;17.20;;;;;;;4.77;77.62;98615.63;4818093;29;20080;-94
2024/01/04 06:08:23;;;;;;;25.85;17.55;;;;;;;4.60;77.70;98589.03;4804237;29;20507;-89
2024/01/04 06:10:49;;;;;;;31.92;18.38;;;;;;;4.75;77.50;98607.88;4819801;29;20049;-93
2024/01/04 06:13:15;;;;;;;29.90;18.05;;;;;;;4.76;77.70;98620.16;4802314;29;20141;-94
2024/01/04 06:15:43;;;;;;;24.42;16.75;;;;;;;4.70;77.15;98615.81;4803520;29;20069;-95
2024/01/04 06:18:09;;;;;;;36.33;24.77;;;;;;;4.74;77.11;98616.13;4800967;29;20438;-90
2024/01/04 06:20:35;;;;;;;31.13;21.25;;;;;;;4.79;77.21;98618.84;4797572;29;20042;-92
2024/01/04 06:23:04;;;;;;;35.10;20.83;;;;;;;4.96;77.43;98638.25;4806913;29;20058;-93
2024/01/04 06:25:32;;;;;;;28.48;19.13;;;;;;;4.90;77.27;98635.75;4798943;29;20121;-92
2024/01/04 06:27:58;;;;;;;30.17;18.50;;;;;;;4.89;76.67;98615.50;4802291;29;20057;-93
2024/01/04 06:30:29;;;;;;;31.80;20.42;;;;;;;5.05;77.04;98631.41;4801048;29;20038;-93
2024/01/04 06:33:05;;;;;;;42.88;25.48;;;;;;;4.97;76.87;98617.72;4801058;29;20037;-94
2024/01/04 06:35:30;;;;;;;32.78;17.50;;;;;;;5.08;76.26;98635.44;4803377;29;20065;-93
2024/01/04 06:37:56;;;;;;;40.13;25.15;;;;;;;5.23;76.17;98640.16;4792041;29;20057;-93
2024/01/04 06:40:21;;;;;;;27.48;17.05;;;;;;;5.42;75.72;98649.41;4799575;29;20045;-94
2024/01/04 06:42:55;;;;;;;28.40;17.58;;;;;;;5.37;75.73;98622.66;4801420;29;20054;-96
2024/01/04 06:45:24;;;;;;;28.92;17.58;;;;;;;5.41;75.53;98626.41;4830849;29;20183;-91
2024/01/04 06:47:50;;;;;;;24.20;15.00;;;;;;;5.41;74.90;98644.31;4830378;29;20121;-91
2024/01/04 06:50:22;;;;;;;24.95;15.75;;;;;;;5.39;75.00;98641.88;4815347;29;20500;-92
2024/01/04 06:52:47;;;;;;;28.15;16.08;;;;;;;5.11;75.40;98626.16;4831599;29;20048;-91
2024/01/04 06:55:18;;;;;;;26.83;15.88;;;;;;;5.20;74.54;98621.97;4811955;29;20420;-93
2024/01/04 06:57:43;;;;;;;33.60;21.27;;;;;;;5.30;75.08;98613.25;4803043;29;20092;-91
2024/01/04 07:00:09;;;;;;;30.42;19.23;;;;;;;5.24;75.52;98612.38;4798867;29;20469;-93
2024/01/04 07:02:35;;;;;;;29.05;18.90;;;;;;;5.41;75.14;98623.75;4814535;29;20041;-90
2024/01/04 07:05:05;;;;;;;28.80;17.45;;;;;;;5.53;74.91;98628.16;4811771;29;20038;-93
2024/01/04 07:07:31;;;;;;;25.63;17.17;;;;;;;5.67;74.39;98640.03;4803856;29;20042;-92
2024/01/04 07:09:57;;;;;;;27.30;16.60;;;;;;;5.77;74.60;98639.28;4807983;29;20046;-91
2024/01/04 07:12:26;;;;;;;24.33;16.00;;;;;;;5.63;74.70;98623.69;4809331;29;20038;-90
2024/01/04 07:14:54;;;;;;;28.95;17.88;;;;;;;5.74;74.65;98621.91;4799901;29;20086;-89
2024/01/04 07:17:20;;;;;;;26.73;17.88;;;;;;;5.76;74.68;98598.41;4800729;29;20054;-90
2024/01/04 07:22:25;;;;;;;36.60;19.20;;;;;;;5.77;75.14;98597.38;4951002;23;20060;-95
2024/01/04 07:24:56;;;;;;;29.35;19.77;;;;;;;5.93;74.66;98600.94;4862241;29;20131;-91
2024/01/04 07:27:21;;;;;;;87.63;51.10;;;;;;;5.97;74.53;98594.03;4846621;29;20052;-92
2024/01/04 07:29:56;;;;;;;30.60;19.50;;;;;;;6.25;74.94;98611.59;4830816;29;20033;-91
2024/01/04 07:32:24;;;;;;;29.65;20.40;;;;;;;6.43;74.36;98614.88;4833259;29;20064;-91
2024/01/04 07:34:50;;;;;;;31.52;22.00;;;;;;;6.37;74.29;98595.38;4854479;29;20024;-91
2024/01/04 07:37:19;;;;;;;31.73;21.95;;;;;;;6.53;74.25;98603.44;4832995;29;20507;-91
2024/01/04 07:39:53;;;;;;;38.33;24.17;;;;;;;6.63;74.20;98606.16;4867007;29;20132;-92
2024/01/04 07:42:22;;;;;;;36.38;23.85;;;;;;;6.71;74.72;98596.84;4987455;24;20071;-94
2024/01/04 07:44:50;;;;;;;41.67;27.33;;;;;;;6.54;76.00;98592.50;4859371;29;20037;-95
2024/01/04 07:47:26;;;;;;;51.22;32.67;;;;;;;6.58;75.81;98601.59;4869234;29;20067;-96
2024/01/04 07:50:18;;;;;;;46.55;31.75;;;;;;;6.68;75.42;98603.50;4916453;23;20072;-96
2024/01/04 07:52:46;;;;;;;47.17;28.25;;;;;;;6.85;75.30;98593.41;4855472;29;20198;-91
2024/01/04 07:55:12;;;;;;;48.50;28.77;;;;;;;7.03;74.40;98585.94;4833502;29;20467;-91
2024/01/04 07:57:41;;;;;;;49.65;29.40;;;;;;;7.19;74.01;98597.50;4832596;29;20048;-93
2024/01/04 08:00:10;;;;;;;44.90;30.00;;;;;;;7.28;73.98;98596.72;4836289;29;20037;-91
2024/01/04 08:02:36;;;;;;;58.28;32.70;;;;;;;7.46;74.47;98606.09;4804350;29;20038;-90
2024/01/04 08:05:07;;;;;;;45.17;31.17;;;;;;;7.57;74.26;98590.03;4827414;29;20480;-89
2024/01/04 08:07:36;;;;;;;49.45;31.50;;;;;;;7.67;73.89;98590.03;4803200;29;20037;-89
2024/01/04 08:10:04;;;;;;;48.45;30.45;;;;;;;7.73;73.79;98569.41;4817891;29;20136;-88
2024/01/04 08:12:40;;;;;;;44.00;29.00;;;;;;;7.95;73.77;98574.44;5120694;23;20133;-94
2024/01/04 08:15:17;;;;;;;87.72;48.30;;;;;;;8.13;74.06;98576.56;4855782;29;20123;-95
2024/01/04 08:17:43;;;;;;;69.95;46.50;;;;;;;8.07;74.70;98569.59;4967141;24;20158;-90
2024/01/04 08:20:09;;;;;;;48.05;30.17;;;;;;;8.41;74.68;98582.44;4876293;29;20137;-92
2024/01/04 08:22:45;;;;;;;47.80;29.10;;;;;;;8.58;74.13;98577.53;5049879;24;20091;-96
2024/01/04 08:27:57;;;;;;;49.80;31.65;;;;;;;8.98;72.48;98556.91;5110154;23;20069;-96
2024/01/04 08:31:13;;;;;;;51.40;30.63;;;;;;;9.22;71.69;98540.91;4844450;29;20119;-96
2024/01/04 08:33:46;;;;;;;43.22;30.33;;;;;;;9.51;70.55;98546.31;4824618;29;20034;-96
2024/01/04 08:36:46;;;;;;;49.42;30.50;;;;;;;9.69;70.49;98542.16;4819182;29;20045;-96
2024/01/04 08:39:22;;;;;;;52.15;31.50;;;;;;;9.80;70.32;98534.00;4854174;29;20110;-96
2024/01/04 08:41:59;;;;;;;40.40;27.23;;;;;;;9.98;70.04;98541.34;4814103;29;20039;-95
2024/01/04 08:48:08;;;;;;;69.57;45.10;;;;;;;10.30;69.58;98519.22;4813514;29;20077;-94
2024/01/04 08:50:45;;;;;;;41.67;28.98;;;;;;;10.39;69.31;98510.50;4812153;29;20043;-90
2024/01/04 08:53:21;;;;;;;39.97;25.27;;;;;;;10.41;69.07;98503.72;4806382;29;20043;-90
2024/01/04 08:55:48;;;;;;;40.65;26.77;;;;;;;10.59;68.96;98506.75;4804415;29;20035;-88
2024/01/04 08:58:16;;;;;;;34.53;25.08;;;;;;;10.51;68.70;98492.84;4806000;29;20039;-90
2024/01/04 09:00:45;;;;;;;40.63;25.80;;;;;;;10.50;68.62;98483.16;4804604;29;20071;-89
2024/01/04 09:03:10;;;;;;;43.70;27.38;;;;;;;10.50;68.76;98483.16;4829527;29;20041;-89
2024/01/04 09:05:36;;;;;;;39.05;25.08;;;;;;;10.65;68.84;98495.63;4826347;29;20415;-91
2024/01/04 09:08:02;;;;;;;47.00;28.27;;;;;;;10.64;69.33;98483.22;4851848;29;20109;-92
2024/01/04 09:10:31;;;;;;;47.30;31.25;;;;;;;10.73;68.88;98480.72;4853004;29;20131;-91
2024/01/04 09:12:56;;;;;;;42.00;28.58;;;;;;;10.71;68.76;98467.53;4841913;29;20037;-89
2024/01/04 09:15:22;;;;;;;27.42;17.42;;;;;;;10.66;66.47;98447.94;4838691;29;20047;-90
2024/01/04 09:17:48;;;;;;;18.65;12.43;;;;;;;10.72;65.15;98461.03;4853876;29;20036;-88
2024/01/04 09:20:13;;;;;;;17.33;9.95;;;;;;;10.84;63.89;98478.66;4848826;29;20047;-92
2024/01/04 09:22:47;;;;;;;13.32;8.70;;;;;;;10.74;63.01;98458.06;4825021;29;20111;-90
2024/01/04 09:25:13;;;;;;;22.02;16.50;;;;;;;10.87;61.81;98464.59;4849017;29;20056;-96
2024/01/04 09:27:59;;;;;;;9.30;5.70;;;;;;;10.91;61.84;98460.22;4858824;29;20080;-92
2024/01/04 09:30:26;;;;;;;10.68;4.10;;;;;;;10.99;61.69;98445.31;4859959;29;20036;-90
2024/01/04 09:32:55;;;;;;;11.07;6.82;;;;;;;11.16;60.54;98467.09;4849459;29;20051;-90
2024/01/04 09:35:23;;;;;;;8.05;4.85;;;;;;;11.20;61.15;98453.84;4851569;29;20061;-89
2024/01/04 09:37:59;;;;;;;7.85;4.82;;;;;;;11.27;60.98;98441.59;4847272;29;20109;-90
2024/01/04 09:40:24;;;;;;;9.43;5.75;;;;;;;11.34;61.33;98441.22;4839094;29;20036;-92
2024/01/04 09:42:51;;;;;;;13.50;6.13;;;;;;;11.44;61.28;98435.66;4860253;29;20032;-91
2024/01/04 09:45:21;;;;;;;15.50;9.15;;;;;;;11.56;61.93;98437.88;4861234;29;20119;-96
2024/01/04 09:47:56;;;;;;;24.17;15.65;;;;;;;11.55;63.37;98409.31;4861014;29;20035;-95
2024/01/04 09:50:29;;;;;;;26.52;17.38;;;;;;;11.75;64.63;98434.28;4866534;29;20041;-95
2024/01/04 09:52:56;;;;;;;29.17;18.00;;;;;;;11.70;65.05;98411.72;4874147;29;20059;-93
2024/01/04 09:58:48;;;;;;;;;;;;;;;;;;;;;
2024/01/04 10:01:17;;;;;;;38.05;25.33;;;;;;;11.93;64.17;98376.75;4901496;29;20096;-95
2024/01/04 10:10:19;;;;;;;123.45;71.35;;;;;;;12.55;62.08;98381.59;5659313;23;20116;-96
2024/01/04 10:12:50;;;;;;;18.88;13.07;;;;;;;12.69;61.02;98373.44;4896934;29;20077;-95
2024/01/04 10:21:04;;;;;;;7.72;5.05;;;;;;;13.39;55.54;98350.34;4893387;23;20068;-95
2024/01/04 10:23:50;;;;;;;142.93;95.88;;;;;;;13.60;55.66;98339.78;4878138;29;20068;-94
2024/01/04 10:26:22;;;;;;;84.32;53.80;;;;;;;13.74;55.85;98326.13;4863526;29;20041;-94
2024/01/04 10:29:06;;;;;;;;;;;;;;;;;;;;;
2024/01/04 10:31:35;;;;;;;34.88;17.55;;;;;;;14.07;54.75;98298.63;4816598;29;20116;-92
2024/01/04 10:34:11;;;;;;;48.13;19.95;;;;;;;14.23;54.81;98304.34;4827975;29;20083;-94
2024/01/04 10:36:40;;;;;;;35.03;14.13;;;;;;;14.38;55.56;98311.19;4882666;29;20040;-95
2024/01/04 10:39:09;;;;;;;46.88;17.52;;;;;;;14.39;55.98;98291.94;4877930;29;20032;-95
2024/01/04 10:41:37;;;;;;;45.13;14.80;;;;;;;14.46;56.26;98297.66;4852158;29;20040;-95
2024/01/04 10:44:06;;;;;;;30.38;14.23;;;;;;;14.46;55.91;98284.09;4875236;29;20044;-93
2024/01/04 10:46:42;;;;;;;27.55;12.00;;;;;;;14.45;55.63;98276.31;4857201;29;20132;-95
2024/01/04 10:49:26;;;;;;;16.90;11.35;;;;;;;14.48;54.95;98278.38;4845878;29;20033;-95
2024/01/04 10:52:03;;;;;;;15.90;10.38;;;;;;;14.44;55.08;98253.03;4846438;29;20033;-95
2024/01/04 10:58:03;;;;;;;;;;;;;;;;;;;;;
2024/01/04 11:01:07;;;;;;;20.45;10.05;;;;;;;14.13;56.96;98238.59;4862489;29;20120;-93
2024/01/04 11:15:14;;;;;;;27.75;14.77;;;;;;;13.99;56.37;98227.16;4949562;23;20170;-91
2024/01/04 11:18:03;;;;;;;27.02;12.65;;;;;;;14.10;56.23;98241.94;4873341;29;20045;-93
2024/01/04 11:43:55;;;;;;;29.10;16.42;;;;;;;13.99;55.03;98178.44;4880797;29;20076;-93
2024/01/04 11:46:34;;;;;;;67.97;42.42;;;;;;;14.14;54.50;98183.34;4842674;29;20136;-94
2024/01/04 11:50:05;;;;;;;;;;;;;;;;;;;;;
2024/01/04 11:53:34;;;;;;;41.67;27.20;;;;;;;14.66;51.65;98185.13;4833635;29;20133;-95
2024/01/04 12:09:02;;;;;;;14.45;5.15;;;;;;;15.95;47.79;98167.59;4882949;29;20056;-92
2024/01/04 12:11:30;;;;;;;7.47;4.10;;;;;;;15.92;45.85;98152.78;4832321;29;20043;-94
2024/01/04 12:14:12;;;;;;;9.00;2.92;;;;;;;16.05;44.40;98150.09;4820717;29;20049;-93
2024/01/04 12:16:48;;;;;;;13.50;4.20;;;;;;;16.25;45.06;98149.25;4838784;29;20144;-93
2024/01/04 12:19:48;;;;;;;10.80;3.45;;;;;;;16.30;43.83;98149.03;4837485;29;20048;-95
2024/01/04 12:30:49;;;;;;;11.70;3.20;;;;;;;16.57;43.17;98154.97;5252671;23;20063;-96
2024/01/04 12:34:15;;;;;;;185.02;87.28;;;;;;;16.41;43.65;98130.38;4858690;29;20041;-96
2024/01/04 12:36:43;;;;;;;23.83;14.13;;;;;;;16.41;42.72;98129.59;4797235;29;20110;-94
2024/01/04 12:39:21;;;;;;;26.83;16.30;;;;;;;16.49;43.54;98140.34;4773343;29;20046;-92
2024/01/04 12:42:06;;;;;;;11.55;4.15;;;;;;;16.40;43.20;98126.09;4854842;29;20159;-95
2024/01/04 12:45:00;;;;;;;;;;;;;;;;;;;;;
2024/01/04 12:47:30;;;;;;;40.00;5.03;;;;;;;16.43;44.22;98121.88;4844850;29;20101;-93
2024/01/04 12:50:16;;;;;;;15.38;2.60;;;;;;;16.32;42.89;98103.31;4863273;29;20037;-92
2024/01/04 12:53:08;;;;;;;12.57;2.20;;;;;;;16.37;42.36;98115.88;4824840;29;20046;-95
2024/01/04 12:55:41;;;;;;;8.15;2.53;;;;;;;16.36;42.60;98115.09;4846418;29;20057;-94
2024/01/04 12:58:08;;;;;;;14.57;5.95;;;;;;;16.31;42.78;98109.06;4838447;29;20247;-94
2024/01/04 13:00:33;;;;;;;15.32;3.38;;;;;;;16.26;41.90;98101.16;4838321;29;20033;-90
2024/01/04 13:03:03;;;;;;;9.30;5.25;;;;;;;16.25;42.56;98099.56;4822662;29;20118;-91
2024/01/04 13:05:31;;;;;;;30.98;19.95;;;;;;;16.39;42.33;98110.13;4832751;29;20029;-94
2024/01/04 13:08:00;;;;;;;21.48;6.63;;;;;;;16.49;42.01;98109.66;4827848;29;20065;-89
2024/01/04 13:10:30;;;;;;;14.50;6.60;;;;;;;16.54;41.24;98099.38;4856292;29;20052;-93